createdAt,value
2023-02-15T00:00:23.703Z,81.17
2023-02-15T00:02:52.465Z,80.17
2023-02-15T00:05:23.081Z,80.87
2023-02-15T00:07:51.989Z,82.57
2023-02-15T00:10:20.907Z,65.23
2023-02-15T00:12:49.970Z,71.73
2023-02-15T00:15:19.023Z,73.83
2023-02-15T00:17:48.025Z,62.30
2023-02-15T00:20:17.425Z,67.70
2023-02-15T00:22:47.887Z,82.17
2023-02-15T00:25:16.703Z,70.23
2023-02-15T00:27:45.796Z,72.53
2023-02-15T00:30:15.236Z,81.27
2023-02-15T00:32:44.568Z,78.23
2023-02-15T00:35:14.438Z,74.50
2023-02-15T00:37:44.153Z,74.37
2023-02-15T00:40:14.880Z,78.77
2023-02-15T00:42:44.340Z,81.87
2023-02-15T00:45:13.800Z,79.30
2023-02-15T00:47:42.794Z,82.03
2023-02-15T00:50:12.885Z,82.67
2023-02-15T00:52:41.624Z,78.63
2023-02-15T00:55:10.644Z,70.20
2023-02-15T00:57:41.864Z,87.23
2023-02-15T01:00:12.053Z,79.63
2023-02-15T01:02:41.053Z,83.90
2023-02-15T01:05:10.386Z,85.23
2023-02-15T01:07:39.591Z,78.07
2023-02-15T01:10:10.392Z,76.97
2023-02-15T01:12:41.038Z,73.90
2023-02-15T01:15:10.814Z,78.40
2023-02-15T01:17:39.905Z,75.33
2023-02-15T01:20:10.598Z,77.80
2023-02-15T01:22:39.183Z,66.60
2023-02-15T01:25:09.253Z,75.17
2023-02-15T01:27:38.577Z,69.63
2023-02-15T01:30:12.587Z,62.33
2023-02-15T01:32:42.306Z,70.37
2023-02-15T01:35:12.296Z,65.03
2023-02-15T01:37:41.404Z,71.93
2023-02-15T01:40:14.942Z,71.57
2023-02-15T01:42:46.962Z,73.47
2023-02-15T01:45:25.525Z,84.47
2023-02-15T01:47:59.489Z,71.37
2023-02-15T01:50:33.062Z,78.60
2023-02-15T01:53:06.384Z,75.93
2023-02-15T01:55:40.014Z,67.17
2023-02-15T01:58:10.282Z,79.53
2023-02-15T02:00:40.952Z,73.40
2023-02-15T02:03:10.208Z,73.93
2023-02-15T02:05:40.755Z,83.30
2023-02-15T02:08:11.422Z,76.50
2023-02-15T02:10:40.870Z,75.53
2023-02-15T02:13:10.352Z,77.70
2023-02-15T02:15:50.329Z,79.23
2023-02-15T02:18:33.606Z,85.23
2023-02-15T02:21:30.284Z,81.43
2023-02-15T02:24:15.616Z,77.90
2023-02-15T02:27:23.619Z,76.00
2023-02-15T02:30:25.400Z,72.27
2023-02-15T02:33:26.171Z,78.03
2023-02-15T02:36:05.517Z,92.87
2023-02-15T02:38:45.279Z,79.20
2023-02-15T02:41:21.184Z,83.93
2023-02-15T02:43:57.699Z,75.80
2023-02-15T02:46:33.247Z,79.40
2023-02-15T02:49:04.881Z,84.90
2023-02-15T02:51:35.144Z,80.80
2023-02-15T02:54:08.244Z,79.97
2023-02-15T02:56:43.622Z,75.23
2023-02-15T02:59:15.723Z,74.60
2023-02-15T03:01:49.640Z,78.63
2023-02-15T03:04:21.577Z,83.37
2023-02-15T03:06:56.340Z,77.03
2023-02-15T03:09:35.908Z,70.33
2023-02-15T03:12:06.696Z,77.37
2023-02-15T03:14:43.211Z,68.87
2023-02-15T03:17:15.649Z,69.80
2023-02-15T03:19:48.852Z,75.17
2023-02-15T03:22:24.554Z,61.00
2023-02-15T03:24:59.244Z,55.33
2023-02-15T03:27:33.584Z,75.27
2023-02-15T03:30:07.434Z,57.57
2023-02-15T03:32:40.082Z,64.27
2023-02-15T03:35:09.877Z,54.63
2023-02-15T03:37:43.609Z,57.27
2023-02-15T03:40:37.918Z,60.53
2023-02-15T03:43:13.919Z,61.17
2023-02-15T03:45:55.920Z,49.20
2023-02-15T03:48:29.393Z,67.67
2023-02-15T03:51:21.781Z,56.23
2023-02-15T03:53:54.169Z,50.07
2023-02-15T03:56:23.339Z,50.73
2023-02-15T03:59:09.544Z,53.87
2023-02-15T04:01:59.537Z,44.43
2023-02-15T04:04:35.169Z,47.63
2023-02-15T04:07:06.246Z,55.73
2023-02-15T04:09:53.828Z,42.07
2023-02-15T04:12:23.584Z,51.93
2023-02-15T04:15:09.907Z,46.70
2023-02-15T04:17:39.110Z,53.57
2023-02-15T04:20:27.600Z,51.87
2023-02-15T04:23:14.024Z,43.90
2023-02-15T04:25:44.676Z,56.47
2023-02-15T04:28:13.793Z,51.33
2023-02-15T04:30:42.691Z,58.77
2023-02-15T04:33:12.204Z,60.00
2023-02-15T04:35:42.877Z,50.10
2023-02-15T04:38:12.531Z,50.27
2023-02-15T04:40:44.350Z,53.10
2023-02-15T04:43:13.903Z,49.27
2023-02-15T04:45:43.215Z,47.57
2023-02-15T04:48:12.373Z,50.63
2023-02-15T04:50:41.154Z,56.93
2023-02-15T04:53:10.258Z,55.00
2023-02-15T04:55:39.663Z,57.43
2023-02-15T04:58:10.277Z,53.20
2023-02-15T05:00:39.601Z,44.97
2023-02-15T05:03:08.726Z,48.23
2023-02-15T05:05:37.954Z,50.30
2023-02-15T05:08:06.939Z,55.73
2023-02-15T05:10:36.297Z,56.30
2023-02-15T05:13:05.728Z,55.93
2023-02-15T05:15:36.739Z,60.07
2023-02-15T05:18:07.607Z,54.67
2023-02-15T05:20:37.237Z,72.37
2023-02-15T05:23:06.515Z,56.90
2023-02-15T05:25:52.734Z,62.13
2023-02-15T05:28:22.203Z,52.40
2023-02-15T05:30:54.823Z,54.70
2023-02-15T05:33:26.155Z,63.80
2023-02-15T05:35:56.422Z,62.60
2023-02-15T05:38:26.436Z,53.73
2023-02-15T05:40:57.760Z,59.23
2023-02-15T05:43:27.262Z,51.50
2023-02-15T05:46:01.453Z,70.00
2023-02-15T05:48:31.674Z,58.03
2023-02-15T05:51:02.175Z,60.07
2023-02-15T05:53:32.960Z,53.80
2023-02-15T05:56:04.660Z,54.67
2023-02-15T05:58:36.497Z,60.27
2023-02-15T06:01:13.039Z,64.60
2023-02-15T06:03:42.749Z,58.77
2023-02-15T06:06:11.845Z,66.97
2023-02-15T06:08:41.349Z,60.60
2023-02-15T06:11:10.910Z,66.60
2023-02-15T06:13:39.657Z,62.50
2023-02-15T06:16:09.077Z,55.33
2023-02-15T06:18:39.610Z,54.50
2023-02-15T06:21:08.383Z,62.73
2023-02-15T06:23:39.306Z,62.37
2023-02-15T06:26:08.555Z,59.67
2023-02-15T06:28:38.581Z,65.47
2023-02-15T06:31:08.030Z,65.27
2023-02-15T06:33:37.332Z,72.57
2023-02-15T06:36:09.036Z,71.07
2023-02-15T06:38:39.188Z,72.90
2023-02-15T06:41:08.284Z,81.97
2023-02-15T06:43:40.684Z,73.20
2023-02-15T06:46:10.869Z,81.20
2023-02-15T06:48:41.180Z,76.87
2023-02-15T06:51:12.336Z,79.93
2023-02-15T06:53:45.542Z,83.67
2023-02-15T06:56:18.345Z,80.63
2023-02-15T06:58:50.577Z,72.90
2023-02-15T07:01:21.072Z,77.17
2023-02-15T07:04:17.391Z,73.70
2023-02-15T07:06:48.719Z,69.77
2023-02-15T07:09:18.692Z,68.10
2023-02-15T07:12:05.626Z,60.60
2023-02-15T07:14:35.541Z,75.27
2023-02-15T07:17:07.251Z,62.37
2023-02-15T07:19:37.147Z,78.63
2023-02-15T07:22:08.264Z,71.23
2023-02-15T07:24:38.760Z,77.60
2023-02-15T07:27:09.859Z,76.63
2023-02-15T07:29:47.092Z,69.30
2023-02-15T07:32:16.838Z,77.47
2023-02-15T07:35:14.593Z,77.67
2023-02-15T07:37:46.253Z,76.33
2023-02-15T07:40:15.943Z,67.77
2023-02-15T07:42:45.842Z,66.13
2023-02-15T07:45:15.205Z,69.90
2023-02-15T07:47:45.357Z,81.70
2023-02-15T07:50:17.917Z,77.00
2023-02-15T07:52:53.326Z,63.77
2023-02-15T07:55:23.436Z,58.20
2023-02-15T07:57:55.953Z,72.57
2023-02-15T08:00:29.623Z,63.83
2023-02-15T08:03:18.618Z,68.87
2023-02-15T08:05:50.440Z,65.40
2023-02-15T08:08:32.738Z,62.83
2023-02-15T08:11:21.450Z,76.73
2023-02-15T08:14:05.817Z,61.33
2023-02-15T08:16:38.398Z,56.33
2023-02-15T08:19:11.388Z,69.50
2023-02-15T08:21:42.864Z,60.10
2023-02-15T08:24:34.856Z,61.60
2023-02-15T08:27:07.463Z,56.57
2023-02-15T08:30:00.605Z,56.40
2023-02-15T08:32:36.297Z,46.60
2023-02-15T08:35:38.788Z,50.57
2023-02-15T08:38:10.391Z,57.63
2023-02-15T08:40:57.009Z,59.00
2023-02-15T08:43:36.694Z,49.80
2023-02-15T08:46:13.557Z,49.30
2023-02-15T08:49:27.494Z,44.67
2023-02-15T08:51:59.775Z,44.80
2023-02-15T08:54:31.552Z,43.07
2023-02-15T08:57:03.544Z,43.00
2023-02-15T08:59:33.824Z,41.97
2023-02-15T09:02:05.919Z,37.13
2023-02-15T09:04:43.096Z,37.30
2023-02-15T09:07:13.321Z,39.57
2023-02-15T09:10:09.073Z,33.87
2023-02-15T09:13:47.431Z,33.10
2023-02-15T09:16:18.220Z,31.10
2023-02-15T09:19:10.507Z,34.17
2023-02-15T09:22:06.929Z,35.60
2023-02-15T09:24:37.561Z,32.97
2023-02-15T09:27:20.608Z,33.13
2023-02-15T09:30:26.739Z,33.13
2023-02-15T09:33:01.242Z,35.53
2023-02-15T09:35:31.389Z,32.93
2023-02-15T09:38:13.759Z,35.60
2023-02-15T09:41:20.142Z,31.60
2023-02-15T09:44:20.365Z,34.33
2023-02-15T09:47:23.140Z,29.20
2023-02-15T09:50:16.992Z,32.57
2023-02-15T09:53:00.892Z,31.65
2023-02-15T09:55:42.775Z,29.07
2023-02-15T09:58:23.465Z,31.43
2023-02-15T10:01:01.907Z,30.50
2023-02-15T10:04:09.871Z,37.40
2023-02-15T10:07:07.393Z,34.73
2023-02-15T10:09:48.046Z,32.23
2023-02-15T10:12:50.805Z,32.07
2023-02-15T10:18:27.038Z,38.20
2023-02-15T10:21:40.515Z,30.70
2023-02-15T10:24:42.101Z,32.23
2023-02-15T10:31:58.008Z,31.07
2023-02-15T10:34:38.814Z,31.33
2023-02-15T10:38:00.043Z,34.07
2023-02-15T10:43:49.048Z,32.95
2023-02-15T10:46:35.394Z,35.08
2023-02-15T10:49:40.672Z,36.05
2023-02-15T10:52:24.368Z,38.83
2023-02-15T10:56:07.557Z,37.78
2023-02-15T11:03:36.011Z,38.13
2023-02-15T11:06:25.235Z,41.92
2023-02-15T11:08:59.821Z,39.97
2023-02-15T11:11:43.714Z,37.88
2023-02-15T11:14:24.677Z,38.45
2023-02-15T11:17:00.034Z,34.42
2023-02-15T11:19:34.312Z,38.83
2023-02-15T11:22:09.743Z,37.75
2023-02-15T11:27:37.596Z,40.55
2023-02-15T11:30:17.618Z,41.50
2023-02-15T11:32:50.665Z,41.55
2023-02-15T11:35:43.016Z,39.17
2023-02-15T11:38:47.901Z,41.72
2023-02-15T11:41:46.345Z,41.05
2023-02-15T11:45:06.333Z,44.30
2023-02-15T11:47:38.165Z,48.22
2023-02-15T11:50:18.161Z,46.30
2023-02-15T11:52:48.994Z,48.88
2023-02-15T11:55:24.876Z,43.85
2023-02-15T11:57:59.217Z,39.17
2023-02-15T12:00:37.675Z,45.42
2023-02-15T12:03:30.208Z,43.92
2023-02-15T12:06:04.519Z,45.50
2023-02-15T12:08:46.228Z,43.30
2023-02-15T12:11:22.289Z,43.15
2023-02-15T12:14:00.175Z,42.15
2023-02-15T12:16:32.326Z,38.15
2023-02-15T12:19:04.756Z,38.83
2023-02-15T12:22:10.789Z,39.60
2023-02-15T12:24:49.562Z,40.65
2023-02-15T12:27:21.046Z,41.67
2023-02-15T12:29:55.263Z,42.75
2023-02-15T12:32:31.936Z,43.72
2023-02-15T12:39:39.477Z,32.88
2023-02-15T12:42:45.728Z,40.63
2023-02-15T12:45:27.238Z,41.92
2023-02-15T12:48:21.052Z,42.13
2023-02-15T12:57:16.074Z,36.60
2023-02-15T12:59:57.149Z,38.97
2023-02-15T13:02:50.611Z,38.38
2023-02-15T13:05:51.266Z,38.40
2023-02-15T13:09:38.438Z,37.58
2023-02-15T13:12:31.838Z,38.28
2023-02-15T13:15:03.883Z,38.63
2023-02-15T13:27:14.631Z,36.92
2023-02-15T13:34:03.706Z,36.78
2023-02-15T13:36:42.864Z,37.78
2023-02-15T13:39:27.385Z,33.80
2023-02-15T13:42:06.313Z,34.05
2023-02-15T13:45:05.154Z,36.13
2023-02-15T13:47:42.210Z,31.70
2023-02-15T13:50:32.480Z,31.85
2023-02-15T13:53:22.108Z,34.75
2023-02-15T13:56:03.006Z,32.58
2023-02-15T13:59:05.081Z,33.30
2023-02-15T14:01:46.586Z,32.75
2023-02-15T14:04:42.727Z,34.42
2023-02-15T14:07:36.280Z,32.90
2023-02-15T14:10:34.800Z,30.63
2023-02-15T14:13:45.039Z,29.88
2023-02-15T14:16:25.022Z,33.88
2023-02-15T14:19:04.022Z,28.83
2023-02-15T14:21:38.002Z,34.67
2023-02-15T14:24:23.985Z,33.65
2023-02-15T14:26:59.697Z,32.80
2023-02-15T14:29:38.307Z,31.52
2023-02-15T14:32:13.187Z,30.95
2023-02-15T14:34:49.254Z,30.70
2023-02-15T14:37:24.233Z,33.35
2023-02-15T14:40:18.382Z,31.33
2023-02-15T14:42:57.620Z,35.05
2023-02-15T14:45:35.117Z,33.80
2023-02-15T14:48:14.168Z,34.70
2023-02-15T14:50:46.125Z,37.63
2023-02-15T14:53:25.610Z,35.95
2023-02-15T14:56:29.836Z,36.45
2023-02-15T14:59:20.814Z,39.47
2023-02-15T15:01:59.892Z,39.77
2023-02-15T15:04:33.865Z,36.75
2023-02-15T15:07:20.386Z,40.13
2023-02-15T15:10:00.344Z,39.97
2023-02-15T15:12:44.426Z,33.60
2023-02-15T15:15:35.335Z,38.70
2023-02-15T15:18:09.925Z,40.97
2023-02-15T15:20:51.871Z,40.47
2023-02-15T15:23:45.832Z,42.63
2023-02-15T15:26:37.950Z,37.87
2023-02-15T15:29:14.805Z,42.23
2023-02-15T15:31:50.741Z,40.70
2023-02-15T15:35:02.445Z,43.10
2023-02-15T15:37:59.629Z,46.10
2023-02-15T15:40:44.271Z,43.63
2023-02-15T15:43:38.604Z,46.30
2023-02-15T15:46:34.062Z,49.03
2023-02-15T15:49:05.220Z,45.97
2023-02-15T15:51:37.388Z,44.23
2023-02-15T15:54:06.678Z,39.37
2023-02-15T15:56:39.064Z,45.80
2023-02-15T15:59:10.343Z,45.37
2023-02-15T16:02:00.792Z,48.13
2023-02-15T16:04:37.222Z,43.17
2023-02-15T16:10:25.143Z,53.37
2023-02-15T16:12:55.689Z,50.50
2023-02-15T16:15:32.814Z,47.70
2023-02-15T16:18:04.428Z,49.97
2023-02-15T16:20:36.717Z,47.53
2023-02-15T16:23:20.191Z,49.77
2023-02-15T16:25:58.198Z,49.90
2023-02-15T16:28:28.010Z,57.33
2023-02-15T16:31:12.814Z,62.83
2023-02-15T16:33:46.692Z,59.70
2023-02-15T16:36:24.227Z,62.03
2023-02-15T16:39:22.070Z,57.90
2023-02-15T16:42:03.606Z,63.13
2023-02-15T16:44:34.328Z,59.47
2023-02-15T16:47:04.869Z,65.50
2023-02-15T16:49:37.964Z,65.00
2023-02-15T16:52:11.139Z,59.40
2023-02-15T16:54:44.338Z,66.43
2023-02-15T16:57:21.336Z,64.00
2023-02-15T16:59:53.049Z,70.20
2023-02-15T17:02:49.441Z,62.57
2023-02-15T17:05:22.331Z,61.30
2023-02-15T17:08:08.650Z,68.33
2023-02-15T17:10:40.511Z,66.67
2023-02-15T17:13:13.466Z,65.87
2023-02-15T17:15:44.376Z,73.40
2023-02-15T17:18:19.466Z,62.17
2023-02-15T17:20:53.320Z,57.20
2023-02-15T17:23:36.302Z,69.33
2023-02-15T17:26:17.893Z,70.30
2023-02-15T17:28:50.293Z,76.93
2023-02-15T17:31:21.767Z,79.03
2023-02-15T17:33:52.081Z,73.40
2023-02-15T17:36:25.248Z,72.23
2023-02-15T17:39:07.672Z,79.20
2023-02-15T17:41:38.527Z,76.63
2023-02-15T17:44:09.764Z,85.60
2023-02-15T17:46:40.112Z,85.40
2023-02-15T17:49:10.322Z,72.87
2023-02-15T17:51:40.912Z,82.77
2023-02-15T17:54:30.364Z,86.07
2023-02-15T17:57:05.970Z,89.50
2023-02-15T17:59:35.466Z,85.73
2023-02-15T18:02:21.636Z,79.87
2023-02-15T18:05:07.930Z,87.77
2023-02-15T18:07:56.398Z,91.20
2023-02-15T18:10:42.648Z,87.67
2023-02-15T18:13:13.780Z,105.83
2023-02-15T18:15:45.149Z,100.97
2023-02-15T18:18:15.617Z,112.57
2023-02-15T18:20:45.892Z,134.97
2023-02-15T18:23:18.770Z,126.97
2023-02-15T18:25:48.200Z,111.93
2023-02-15T18:28:18.180Z,121.17
2023-02-15T18:30:48.150Z,141.47
2023-02-15T18:33:33.127Z,137.37
2023-02-15T18:36:06.235Z,146.70
2023-02-15T18:38:37.328Z,143.67
2023-02-15T18:41:07.958Z,134.87
2023-02-15T18:43:37.374Z,120.83
2023-02-15T18:46:06.947Z,121.73
2023-02-15T18:48:37.768Z,123.40
2023-02-15T18:51:10.377Z,128.03
2023-02-15T18:53:41.546Z,128.23
2023-02-15T18:56:15.098Z,129.07
2023-02-15T18:58:48.074Z,130.23
2023-02-15T19:01:18.473Z,136.73
2023-02-15T19:03:49.526Z,124.17
2023-02-15T19:06:22.086Z,113.87
2023-02-15T19:08:55.316Z,110.27
2023-02-15T19:11:28.484Z,114.87
2023-02-15T19:13:58.306Z,118.47
2023-02-15T19:16:33.250Z,117.90
2023-02-15T19:19:07.441Z,112.53
2023-02-15T19:21:37.284Z,116.07
2023-02-15T19:24:17.807Z,116.53
2023-02-15T19:26:58.143Z,128.20
2023-02-15T19:29:29.690Z,154.83
2023-02-15T19:32:01.548Z,135.87
2023-02-15T19:34:31.565Z,129.63
2023-02-15T19:37:04.285Z,115.13
2023-02-15T19:39:41.286Z,125.97
2023-02-15T19:42:18.622Z,117.47
2023-02-15T19:44:48.120Z,109.73
2023-02-15T19:47:17.934Z,108.07
2023-02-15T19:49:46.916Z,111.30
2023-02-15T19:52:20.670Z,107.23
2023-02-15T19:54:52.046Z,109.30
2023-02-15T19:57:22.153Z,104.13
2023-02-15T19:59:51.516Z,95.43
2023-02-15T20:02:22.992Z,107.97
2023-02-15T20:04:52.503Z,119.23
2023-02-15T20:07:28.454Z,98.30
2023-02-15T20:10:05.029Z,97.63
2023-02-15T20:12:35.264Z,99.63
2023-02-15T20:15:18.431Z,92.67
2023-02-15T20:17:49.553Z,99.53
2023-02-15T20:20:20.403Z,108.10
2023-02-15T20:22:52.338Z,105.80
2023-02-15T20:25:27.842Z,96.77
2023-02-15T20:27:59.646Z,109.60
2023-02-15T20:30:31.787Z,117.73
2023-02-15T20:33:01.905Z,117.03
2023-02-15T20:35:31.744Z,125.07
2023-02-15T20:38:03.112Z,113.57
2023-02-15T20:40:37.709Z,96.63
2023-02-15T20:43:19.397Z,108.60
2023-02-15T20:45:49.567Z,108.53
2023-02-15T20:48:19.848Z,102.47
2023-02-15T20:50:51.468Z,109.00
2023-02-15T20:53:22.192Z,122.20
2023-02-15T20:55:55.181Z,101.57
2023-02-15T20:58:27.940Z,112.27
2023-02-15T21:00:59.159Z,109.50
2023-02-15T21:03:31.640Z,106.47
2023-02-15T21:06:02.365Z,111.77
2023-02-15T21:08:32.688Z,106.70
2023-02-15T21:11:04.203Z,115.77
2023-02-15T21:13:36.513Z,110.27
2023-02-15T21:16:05.743Z,106.33
2023-02-15T21:18:38.290Z,114.97
2023-02-15T21:21:08.787Z,110.53
2023-02-15T21:23:41.820Z,129.77
2023-02-15T21:26:19.557Z,115.77
2023-02-15T21:28:50.654Z,131.30
2023-02-15T21:31:22.191Z,122.33
2023-02-15T21:33:53.376Z,114.93
2023-02-15T21:36:25.602Z,113.20
2023-02-15T21:38:57.005Z,120.33
2023-02-15T21:41:46.826Z,110.00
2023-02-15T21:44:38.520Z,123.27
2023-02-15T21:47:26.024Z,133.50
2023-02-15T21:49:56.037Z,123.63
2023-02-15T21:52:24.641Z,115.20
2023-02-15T21:54:54.264Z,123.90
2023-02-15T21:57:25.288Z,127.90
2023-02-15T21:59:54.873Z,135.10
2023-02-15T22:02:29.913Z,155.47
2023-02-15T22:05:01.088Z,143.83
2023-02-15T22:07:30.707Z,132.77
2023-02-15T22:10:00.006Z,135.77
2023-02-15T22:12:32.657Z,135.90
2023-02-15T22:15:03.633Z,138.53
2023-02-15T22:17:35.044Z,122.73
2023-02-15T22:20:13.971Z,127.70
2023-02-15T22:22:43.861Z,120.10
2023-02-15T22:25:16.495Z,117.33
2023-02-15T22:27:49.746Z,119.57
2023-02-15T22:30:25.754Z,117.80
2023-02-15T22:32:56.304Z,102.70
2023-02-15T22:35:28.098Z,121.67
2023-02-15T22:38:20.438Z,131.27
2023-02-15T22:40:52.494Z,131.23
2023-02-15T22:43:39.988Z,141.47
2023-02-15T22:46:15.982Z,131.43
2023-02-15T22:48:46.535Z,134.40
2023-02-15T22:51:16.519Z,122.27
2023-02-15T22:53:46.134Z,148.10
2023-02-15T22:56:22.339Z,139.30
2023-02-15T22:58:56.715Z,128.67
2023-02-15T23:01:31.651Z,133.83
2023-02-15T23:04:03.368Z,128.90
2023-02-15T23:06:36.313Z,137.10
2023-02-15T23:09:05.745Z,140.97
2023-02-15T23:11:35.472Z,128.60
2023-02-15T23:14:06.565Z,134.43
2023-02-15T23:16:36.054Z,136.43
2023-02-15T23:19:05.141Z,119.17
2023-02-15T23:21:36.601Z,118.57
2023-02-15T23:24:19.560Z,125.93
2023-02-15T23:26:49.945Z,131.33
2023-02-15T23:29:22.632Z,135.03
2023-02-15T23:31:54.526Z,122.13
2023-02-15T23:34:29.579Z,126.60
2023-02-15T23:36:59.410Z,132.00
2023-02-15T23:39:47.216Z,111.77
2023-02-15T23:42:20.610Z,140.33
2023-02-15T23:44:52.221Z,125.30
2023-02-15T23:47:44.897Z,120.07
2023-02-15T23:50:20.147Z,124.83
2023-02-15T23:52:50.137Z,128.47
2023-02-15T23:55:20.193Z,122.27
2023-02-15T23:57:50.072Z,125.03
